sensor_id;sensor_type;location;lat;lon;timestamp;P1;durP1;ratioP1;P2;durP2;ratioP2
10511;SDS011;5304;48.604;2.096;2024-03-07T04:49:32;14.10;;;8.60;;
10511;SDS011;5304;48.604;2.096;2024-03-07T04:52:17;14.87;;;8.77;;
10511;SDS011;5304;48.604;2.096;2024-03-07T04:55:01;14.23;;;8.77;;
10511;SDS011;5304;48.604;2.096;2024-03-07T04:57:45;14.30;;;8.77;;
10511;SDS011;5304;48.604;2.096;2024-03-07T05:00:29;13.27;;;7.90;;
10511;SDS011;5304;48.604;2.096;2024-03-07T05:03:14;14.53;;;9.13;;
10511;SDS011;5304;48.604;2.096;2024-03-07T05:05:58;15.77;;;9.10;;
10511;SDS011;5304;48.604;2.096;2024-03-07T05:08:43;12.20;;;7.70;;
10511;SDS011;5304;48.604;2.096;2024-03-07T05:11:31;13.43;;;8.67;;
10511;SDS011;5304;48.604;2.096;2024-03-07T05:14:16;12.97;;;8.13;;
10511;SDS011;5304;48.604;2.096;2024-03-07T05:17:00;14.37;;;8.03;;
10511;SDS011;5304;48.604;2.096;2024-03-07T05:19:52;14.53;;;7.57;;
10511;SDS011;5304;48.604;2.096;2024-03-07T05:22:36;17.07;;;8.80;;
10511;SDS011;5304;48.604;2.096;2024-03-07T05:25:36;12.90;;;8.10;;
10511;SDS011;5304;48.604;2.096;2024-03-07T05:28:22;14.10;;;7.60;;
10511;SDS011;5304;48.604;2.096;2024-03-07T05:31:06;12.67;;;8.43;;
10511;SDS011;5304;48.604;2.096;2024-03-07T05:33:51;11.20;;;7.97;;
10511;SDS011;5304;48.604;2.096;2024-03-07T05:36:35;11.50;;;8.07;;
10511;SDS011;5304;48.604;2.096;2024-03-07T05:39:27;14.93;;;8.20;;
10511;SDS011;5304;48.604;2.096;2024-03-07T05:42:12;13.50;;;6.80;;
10511;SDS011;5304;48.604;2.096;2024-03-07T05:44:58;8.83;;;6.93;;
10511;SDS011;5304;48.604;2.096;2024-03-07T05:47:42;11.70;;;7.17;;
10511;SDS011;5304;48.604;2.096;2024-03-07T05:50:27;13.07;;;8.00;;
10511;SDS011;5304;48.604;2.096;2024-03-07T05:53:12;13.87;;;7.23;;
10511;SDS011;5304;48.604;2.096;2024-03-07T05:55:56;16.50;;;7.53;;
10511;SDS011;5304;48.604;2.096;2024-03-07T05:58:40;18.47;;;8.33;;
10511;SDS011;5304;48.604;2.096;2024-03-07T06:01:24;14.20;;;7.87;;
10511;SDS011;5304;48.604;2.096;2024-03-07T06:04:10;12.33;;;7.53;;
10511;SDS011;5304;48.604;2.096;2024-03-07T06:06:55;13.47;;;7.83;;
10511;SDS011;5304;48.604;2.096;2024-03-07T06:09:39;11.80;;;7.37;;
10511;SDS011;5304;48.604;2.096;2024-03-07T06:12:23;13.37;;;7.60;;
10511;SDS011;5304;48.604;2.096;2024-03-07T06:15:07;12.73;;;6.77;;
10511;SDS011;5304;48.604;2.096;2024-03-07T06:17:53;15.23;;;8.07;;
10511;SDS011;5304;48.604;2.096;2024-03-07T06:20:37;11.63;;;7.27;;
10511;SDS011;5304;48.604;2.096;2024-03-07T06:23:22;13.70;;;7.97;;
10511;SDS011;5304;48.604;2.096;2024-03-07T06:26:06;11.80;;;7.93;;
10511;SDS011;5304;48.604;2.096;2024-03-07T06:28:56;12.33;;;7.37;;
10511;SDS011;5304;48.604;2.096;2024-03-07T06:31:40;15.83;;;7.33;;
10511;SDS011;5304;48.604;2.096;2024-03-07T06:34:25;14.70;;;7.67;;
10511;SDS011;5304;48.604;2.096;2024-03-07T06:37:10;15.63;;;8.47;;
10511;SDS011;5304;48.604;2.096;2024-03-07T06:39:56;11.93;;;7.40;;
10511;SDS011;5304;48.604;2.096;2024-03-07T06:42:40;13.07;;;7.40;;
10511;SDS011;5304;48.604;2.096;2024-03-07T06:45:24;11.33;;;7.20;;
10511;SDS011;5304;48.604;2.096;2024-03-07T06:48:10;14.93;;;8.43;;
10511;SDS011;5304;48.604;2.096;2024-03-07T06:50:54;12.73;;;7.53;;
10511;SDS011;5304;48.604;2.096;2024-03-07T06:53:38;13.73;;;6.73;;
10511;SDS011;5304;48.604;2.096;2024-03-07T06:56:23;11.60;;;7.23;;
10511;SDS011;5304;48.604;2.096;2024-03-07T06:59:10;13.50;;;7.60;;
10511;SDS011;5304;48.604;2.096;2024-03-07T07:01:54;14.90;;;7.83;;
10511;SDS011;5304;48.604;2.096;2024-03-07T07:04:38;13.20;;;8.97;;
10511;SDS011;5304;48.604;2.096;2024-03-07T07:07:26;14.93;;;9.17;;
10511;SDS011;5304;48.604;2.096;2024-03-07T07:10:11;21.97;;;10.63;;
10511;SDS011;5304;48.604;2.096;2024-03-07T07:13:02;18.43;;;10.17;;
10511;SDS011;5304;48.604;2.096;2024-03-07T07:15:51;17.87;;;9.33;;
10511;SDS011;5304;48.604;2.096;2024-03-07T07:18:37;17.53;;;9.17;;
10511;SDS011;5304;48.604;2.096;2024-03-07T07:21:22;16.27;;;10.33;;
10511;SDS011;5304;48.604;2.096;2024-03-07T07:24:06;16.90;;;9.47;;
10511;SDS011;5304;48.604;2.096;2024-03-07T07:26:51;14.53;;;8.63;;
10511;SDS011;5304;48.604;2.096;2024-03-07T07:29:35;13.17;;;7.30;;
10511;SDS011;5304;48.604;2.096;2024-03-07T07:32:20;13.20;;;7.27;;
10511;SDS011;5304;48.604;2.096;2024-03-07T07:35:04;20.07;;;11.10;;
10511;SDS011;5304;48.604;2.096;2024-03-07T07:37:55;14.30;;;8.33;;
10511;SDS011;5304;48.604;2.096;2024-03-07T07:40:40;12.63;;;7.70;;
10511;SDS011;5304;48.604;2.096;2024-03-07T07:43:24;11.10;;;7.43;;
10511;SDS011;5304;48.604;2.096;2024-03-07T07:46:09;12.07;;;7.63;;
10511;SDS011;5304;48.604;2.096;2024-03-07T07:48:53;12.60;;;6.90;;
10511;SDS011;5304;48.604;2.096;2024-03-07T07:51:37;12.00;;;6.80;;
10511;SDS011;5304;48.604;2.096;2024-03-07T07:54:21;11.93;;;6.57;;
10511;SDS011;5304;48.604;2.096;2024-03-07T07:57:06;10.90;;;6.37;;
10511;SDS011;5304;48.604;2.096;2024-03-07T07:59:50;8.37;;;6.23;;
10511;SDS011;5304;48.604;2.096;2024-03-07T08:02:34;7.47;;;5.73;;
10511;SDS011;5304;48.604;2.096;2024-03-07T08:05:19;7.23;;;5.63;;
10511;SDS011;5304;48.604;2.096;2024-03-07T08:08:06;8.30;;;5.90;;
10511;SDS011;5304;48.604;2.096;2024-03-07T08:10:52;8.97;;;5.90;;
10511;SDS011;5304;48.604;2.096;2024-03-07T08:13:36;9.33;;;5.30;;
10511;SDS011;5304;48.604;2.096;2024-03-07T08:16:22;7.73;;;6.27;;
10511;SDS011;5304;48.604;2.096;2024-03-07T08:19:07;8.67;;;5.97;;
10511;SDS011;5304;48.604;2.096;2024-03-07T08:21:52;9.67;;;5.70;;
10511;SDS011;5304;48.604;2.096;2024-03-07T08:24:37;8.50;;;5.80;;
10511;SDS011;5304;48.604;2.096;2024-03-07T08:27:21;7.23;;;5.93;;
10511;SDS011;5304;48.604;2.096;2024-03-07T08:30:06;8.60;;;6.40;;
10511;SDS011;5304;48.604;2.096;2024-03-07T08:32:51;11.40;;;6.47;;
10511;SDS011;5304;48.604;2.096;2024-03-07T08:35:38;9.20;;;6.47;;
10511;SDS011;5304;48.604;2.096;2024-03-07T08:38:22;10.73;;;6.90;;
10511;SDS011;5304;48.604;2.096;2024-03-07T08:41:06;8.37;;;6.73;;
10511;SDS011;5304;48.604;2.096;2024-03-07T08:43:50;9.63;;;6.90;;
10511;SDS011;5304;48.604;2.096;2024-03-07T08:46:34;9.90;;;6.70;;
10511;SDS011;5304;48.604;2.096;2024-03-07T08:49:19;8.70;;;6.70;;
10511;SDS011;5304;48.604;2.096;2024-03-07T08:52:03;7.97;;;6.90;;
10511;SDS011;5304;48.604;2.096;2024-03-07T08:54:50;8.90;;;7.07;;
10511;SDS011;5304;48.604;2.096;2024-03-07T08:57:34;12.77;;;7.47;;
10511;SDS011;5304;48.604;2.096;2024-03-07T09:00:20;11.37;;;7.27;;
10511;SDS011;5304;48.604;2.096;2024-03-07T09:03:13;11.73;;;7.70;;
10511;SDS011;5304;48.604;2.096;2024-03-07T09:05:58;10.43;;;7.03;;
10511;SDS011;5304;48.604;2.096;2024-03-07T09:08:43;9.23;;;6.63;;
10511;SDS011;5304;48.604;2.096;2024-03-07T09:11:27;11.00;;;7.83;;
10511;SDS011;5304;48.604;2.096;2024-03-07T09:14:12;8.77;;;6.87;;
10511;SDS011;5304;48.604;2.096;2024-03-07T09:16:57;9.27;;;7.10;;
10511;SDS011;5304;48.604;2.096;2024-03-07T09:19:41;10.70;;;7.23;;
10511;SDS011;5304;48.604;2.096;2024-03-07T09:22:25;10.43;;;6.50;;
10511;SDS011;5304;48.604;2.096;2024-03-07T09:25:09;13.13;;;6.90;;
10511;SDS011;5304;48.604;2.096;2024-03-07T09:27:56;8.80;;;6.70;;
10511;SDS011;5304;48.604;2.096;2024-03-07T09:30:40;10.73;;;6.47;;
10511;SDS011;5304;48.604;2.096;2024-03-07T09:33:24;11.33;;;7.00;;
10511;SDS011;5304;48.604;2.096;2024-03-07T09:36:09;9.67;;;6.50;;
10511;SDS011;5304;48.604;2.096;2024-03-07T09:38:53;8.97;;;6.80;;
10511;SDS011;5304;48.604;2.096;2024-03-07T09:41:37;7.37;;;5.57;;
10511;SDS011;5304;48.604;2.096;2024-03-07T09:44:23;9.50;;;7.83;;
10511;SDS011;5304;48.604;2.096;2024-03-07T09:47:10;10.53;;;6.23;;
10511;SDS011;5304;48.604;2.096;2024-03-07T09:49:55;8.33;;;6.67;;
10511;SDS011;5304;48.604;2.096;2024-03-07T09:52:40;9.53;;;6.17;;
10511;SDS011;5304;48.604;2.096;2024-03-07T09:55:26;8.87;;;6.70;;
10511;SDS011;5304;48.604;2.096;2024-03-07T09:58:11;8.93;;;6.53;;
10511;SDS011;5304;48.604;2.096;2024-03-07T10:00:58;8.73;;;6.43;;
10511;SDS011;5304;48.604;2.096;2024-03-07T10:03:46;8.70;;;6.47;;
10511;SDS011;5304;48.604;2.096;2024-03-07T10:06:32;10.83;;;6.47;;
10511;SDS011;5304;48.604;2.096;2024-03-07T10:09:17;9.27;;;6.30;;
10511;SDS011;5304;48.604;2.096;2024-03-07T10:12:01;10.33;;;6.97;;
10511;SDS011;5304;48.604;2.096;2024-03-07T10:14:49;8.07;;;6.30;;
10511;SDS011;5304;48.604;2.096;2024-03-07T10:17:34;10.93;;;7.00;;
10511;SDS011;5304;48.604;2.096;2024-03-07T10:20:19;8.93;;;6.70;;
10511;SDS011;5304;48.604;2.096;2024-03-07T10:23:07;10.30;;;7.17;;
10511;SDS011;5304;48.604;2.096;2024-03-07T10:25:52;10.10;;;6.67;;
10511;SDS011;5304;48.604;2.096;2024-03-07T10:28:38;10.20;;;6.97;;
10511;SDS011;5304;48.604;2.096;2024-03-07T10:31:31;11.57;;;7.87;;
10511;SDS011;5304;48.604;2.096;2024-03-07T10:34:16;10.90;;;7.90;;
10511;SDS011;5304;48.604;2.096;2024-03-07T10:37:00;12.27;;;7.57;;
10511;SDS011;5304;48.604;2.096;2024-03-07T10:39:47;11.87;;;7.63;;
10511;SDS011;5304;48.604;2.096;2024-03-07T10:42:35;13.67;;;8.30;;
10511;SDS011;5304;48.604;2.096;2024-03-07T10:45:21;12.50;;;8.70;;
10511;SDS011;5304;48.604;2.096;2024-03-07T10:48:06;12.43;;;8.00;;
10511;SDS011;5304;48.604;2.096;2024-03-07T10:51:38;12.27;;;8.47;;
10511;SDS011;5304;48.604;2.096;2024-03-07T10:54:09;13.47;;;9.47;;
10511;SDS011;5304;48.604;2.096;2024-03-07T11:00:13;14.80;;;10.20;;
10511;SDS011;5304;48.604;2.096;2024-03-07T11:03:16;14.53;;;9.87;;
10511;SDS011;5304;48.604;2.096;2024-03-07T11:06:04;17.80;;;9.90;;
10511;SDS011;5304;48.604;2.096;2024-03-07T11:08:54;20.80;;;12.10;;
10511;SDS011;5304;48.604;2.096;2024-03-07T11:11:40;19.03;;;12.20;;
10511;SDS011;5304;48.604;2.096;2024-03-07T11:14:26;20.57;;;12.90;;
10511;SDS011;5304;48.604;2.096;2024-03-07T11:17:11;21.23;;;12.10;;
10511;SDS011;5304;48.604;2.096;2024-03-07T11:20:17;21.00;;;11.77;;
10511;SDS011;5304;48.604;2.096;2024-03-07T11:23:26;19.13;;;12.27;;
10511;SDS011;5304;48.604;2.096;2024-03-07T11:26:22;19.17;;;12.40;;
10511;SDS011;5304;48.604;2.096;2024-03-07T11:29:30;19.73;;;12.57;;
10511;SDS011;5304;48.604;2.096;2024-03-07T11:32:33;22.53;;;13.47;;
10511;SDS011;5304;48.604;2.096;2024-03-07T11:35:20;20.13;;;13.30;;
10511;SDS011;5304;48.604;2.096;2024-03-07T11:38:15;19.57;;;13.07;;
10511;SDS011;5304;48.604;2.096;2024-03-07T11:41:09;19.07;;;12.73;;
10511;SDS011;5304;48.604;2.096;2024-03-07T11:43:57;24.77;;;13.17;;
10511;SDS011;5304;48.604;2.096;2024-03-07T11:46:43;21.47;;;12.53;;
10511;SDS011;5304;48.604;2.096;2024-03-07T11:49:27;20.43;;;12.60;;
10511;SDS011;5304;48.604;2.096;2024-03-07T11:52:11;20.30;;;12.13;;
10511;SDS011;5304;48.604;2.096;2024-03-07T11:54:56;26.00;;;13.30;;
10511;SDS011;5304;48.604;2.096;2024-03-07T11:57:47;21.23;;;13.27;;
10511;SDS011;5304;48.604;2.096;2024-03-07T12:00:33;19.73;;;12.57;;
10511;SDS011;5304;48.604;2.096;2024-03-07T12:03:19;20.03;;;12.10;;
10511;SDS011;5304;48.604;2.096;2024-03-07T12:06:08;22.53;;;12.40;;
10511;SDS011;5304;48.604;2.096;2024-03-07T12:08:56;19.10;;;12.47;;
10511;SDS011;5304;48.604;2.096;2024-03-07T12:11:42;21.17;;;12.57;;
10511;SDS011;5304;48.604;2.096;2024-03-07T12:14:27;21.70;;;13.37;;
10511;SDS011;5304;48.604;2.096;2024-03-07T12:17:13;20.83;;;12.37;;
10511;SDS011;5304;48.604;2.096;2024-03-07T12:19:59;20.30;;;12.30;;
10511;SDS011;5304;48.604;2.096;2024-03-07T12:22:47;19.97;;;12.50;;
10511;SDS011;5304;48.604;2.096;2024-03-07T12:25:32;22.50;;;13.70;;
10511;SDS011;5304;48.604;2.096;2024-03-07T12:28:23;23.47;;;13.13;;
10511;SDS011;5304;48.604;2.096;2024-03-07T12:31:08;23.80;;;13.63;;
10511;SDS011;5304;48.604;2.096;2024-03-07T12:34:00;19.97;;;13.30;;
10511;SDS011;5304;48.604;2.096;2024-03-07T12:36:44;21.93;;;13.73;;
10511;SDS011;5304;48.604;2.096;2024-03-07T12:39:31;24.50;;;14.67;;
10511;SDS011;5304;48.604;2.096;2024-03-07T12:42:20;23.60;;;13.83;;
10511;SDS011;5304;48.604;2.096;2024-03-07T12:45:05;21.00;;;12.57;;
10511;SDS011;5304;48.604;2.096;2024-03-07T12:47:53;17.90;;;12.97;;
10511;SDS011;5304;48.604;2.096;2024-03-07T12:50:38;18.13;;;12.33;;
10511;SDS011;5304;48.604;2.096;2024-03-07T12:53:24;19.77;;;12.70;;
10511;SDS011;5304;48.604;2.096;2024-03-07T12:56:09;18.90;;;12.67;;
10511;SDS011;5304;48.604;2.096;2024-03-07T12:58:53;19.40;;;11.80;;
10511;SDS011;5304;48.604;2.096;2024-03-07T13:01:38;21.07;;;12.40;;
10511;SDS011;5304;48.604;2.096;2024-03-07T13:04:23;17.83;;;12.70;;
10511;SDS011;5304;48.604;2.096;2024-03-07T13:07:11;18.93;;;13.33;;
10511;SDS011;5304;48.604;2.096;2024-03-07T13:09:55;18.83;;;11.47;;
10511;SDS011;5304;48.604;2.096;2024-03-07T13:12:39;17.77;;;11.67;;
10511;SDS011;5304;48.604;2.096;2024-03-07T13:15:27;17.90;;;11.30;;
10511;SDS011;5304;48.604;2.096;2024-03-07T13:18:11;16.30;;;10.90;;
10511;SDS011;5304;48.604;2.096;2024-03-07T13:20:57;15.90;;;11.33;;
10511;SDS011;5304;48.604;2.096;2024-03-07T13:23:41;19.83;;;13.03;;
10511;SDS011;5304;48.604;2.096;2024-03-07T13:26:26;16.77;;;11.07;;
10511;SDS011;5304;48.604;2.096;2024-03-07T13:29:14;18.60;;;12.00;;
10511;SDS011;5304;48.604;2.096;2024-03-07T13:31:58;19.50;;;12.80;;
10511;SDS011;5304;48.604;2.096;2024-03-07T13:34:43;17.50;;;11.40;;
10511;SDS011;5304;48.604;2.096;2024-03-07T13:37:29;17.80;;;10.90;;
10511;SDS011;5304;48.604;2.096;2024-03-07T13:40:18;15.43;;;10.50;;
10511;SDS011;5304;48.604;2.096;2024-03-07T13:43:08;20.87;;;10.93;;
10511;SDS011;5304;48.604;2.096;2024-03-07T13:45:52;15.23;;;10.47;;
10511;SDS011;5304;48.604;2.096;2024-03-07T13:48:36;16.00;;;10.83;;
10511;SDS011;5304;48.604;2.096;2024-03-07T13:51:21;19.43;;;12.40;;
10511;SDS011;5304;48.604;2.096;2024-03-07T13:54:05;15.70;;;11.20;;
10511;SDS011;5304;48.604;2.096;2024-03-07T13:57:34;19.30;;;12.90;;
10511;SDS011;5304;48.604;2.096;2024-03-07T14:13:31;18.10;;;11.87;;
10511;SDS011;5304;48.604;2.096;2024-03-07T14:32:42;16.77;;;12.27;;
10511;SDS011;5304;48.604;2.096;2024-03-07T14:38:29;18.37;;;11.83;;
10511;SDS011;5304;48.604;2.096;2024-03-07T14:41:24;17.33;;;11.77;;
10511;SDS011;5304;48.604;2.096;2024-03-07T14:44:44;20.13;;;12.97;;
10511;SDS011;5304;48.604;2.096;2024-03-07T14:47:31;21.50;;;13.40;;
10511;SDS011;5304;48.604;2.096;2024-03-07T14:50:16;17.23;;;12.13;;
10511;SDS011;5304;48.604;2.096;2024-03-07T14:53:01;21.60;;;13.10;;
10511;SDS011;5304;48.604;2.096;2024-03-07T14:55:48;17.93;;;13.20;;
10511;SDS011;5304;48.604;2.096;2024-03-07T14:58:33;21.30;;;13.03;;
10511;SDS011;5304;48.604;2.096;2024-03-07T15:01:17;18.43;;;13.00;;
10511;SDS011;5304;48.604;2.096;2024-03-07T15:04:01;18.27;;;12.57;;
10511;SDS011;5304;48.604;2.096;2024-03-07T15:06:50;20.10;;;13.20;;
10511;SDS011;5304;48.604;2.096;2024-03-07T15:09:36;20.77;;;13.30;;
10511;SDS011;5304;48.604;2.096;2024-03-07T15:12:21;17.93;;;12.57;;
10511;SDS011;5304;48.604;2.096;2024-03-07T15:15:06;21.53;;;13.60;;
10511;SDS011;5304;48.604;2.096;2024-03-07T15:17:51;20.10;;;13.70;;
10511;SDS011;5304;48.604;2.096;2024-03-07T15:20:35;20.57;;;12.50;;
10511;SDS011;5304;48.604;2.096;2024-03-07T15:23:20;20.77;;;13.70;;
10511;SDS011;5304;48.604;2.096;2024-03-07T15:26:06;21.37;;;12.97;;
10511;SDS011;5304;48.604;2.096;2024-03-07T15:28:51;20.50;;;14.00;;
10511;SDS011;5304;48.604;2.096;2024-03-07T15:31:36;19.03;;;12.60;;
10511;SDS011;5304;48.604;2.096;2024-03-07T15:34:20;20.87;;;13.27;;
10511;SDS011;5304;48.604;2.096;2024-03-07T15:37:04;24.13;;;14.57;;
10511;SDS011;5304;48.604;2.096;2024-03-07T15:39:49;20.10;;;13.10;;
10511;SDS011;5304;48.604;2.096;2024-03-07T15:42:35;22.50;;;13.40;;
10511;SDS011;5304;48.604;2.096;2024-03-07T15:45:20;21.70;;;13.70;;
10511;SDS011;5304;48.604;2.096;2024-03-07T15:48:05;21.27;;;13.53;;
10511;SDS011;5304;48.604;2.096;2024-03-07T15:50:53;23.70;;;13.93;;
10511;SDS011;5304;48.604;2.096;2024-03-07T15:53:40;19.80;;;12.80;;
10511;SDS011;5304;48.604;2.096;2024-03-07T15:56:26;20.20;;;13.03;;
10511;SDS011;5304;48.604;2.096;2024-03-07T15:59:10;21.60;;;13.47;;
10511;SDS011;5304;48.604;2.096;2024-03-07T16:01:55;21.33;;;12.57;;
10511;SDS011;5304;48.604;2.096;2024-03-07T16:04:39;20.80;;;13.53;;
10511;SDS011;5304;48.604;2.096;2024-03-07T16:07:23;22.63;;;12.97;;
10511;SDS011;5304;48.604;2.096;2024-03-07T16:10:09;19.23;;;12.20;;
10511;SDS011;5304;48.604;2.096;2024-03-07T16:12:53;20.63;;;13.53;;
10511;SDS011;5304;48.604;2.096;2024-03-07T16:15:38;19.53;;;13.57;;
10511;SDS011;5304;48.604;2.096;2024-03-07T16:18:22;20.97;;;13.57;;
10511;SDS011;5304;48.604;2.096;2024-03-07T16:21:09;18.33;;;12.40;;
10511;SDS011;5304;48.604;2.096;2024-03-07T16:23:53;18.90;;;11.57;;
10511;SDS011;5304;48.604;2.096;2024-03-07T16:26:40;21.93;;;13.50;;
10511;SDS011;5304;48.604;2.096;2024-03-07T16:29:24;21.97;;;12.43;;
10511;SDS011;5304;48.604;2.096;2024-03-07T16:32:09;20.87;;;12.83;;
10511;SDS011;5304;48.604;2.096;2024-03-07T16:34:55;17.67;;;11.87;;
10511;SDS011;5304;48.604;2.096;2024-03-07T16:37:39;21.30;;;13.30;;
10511;SDS011;5304;48.604;2.096;2024-03-07T16:40:25;19.70;;;12.73;;
10511;SDS011;5304;48.604;2.096;2024-03-07T16:43:11;20.97;;;12.93;;
10511;SDS011;5304;48.604;2.096;2024-03-07T16:45:56;19.77;;;13.07;;
10511;SDS011;5304;48.604;2.096;2024-03-07T16:48:40;23.50;;;13.07;;
10511;SDS011;5304;48.604;2.096;2024-03-07T16:51:24;20.23;;;13.10;;
10511;SDS011;5304;48.604;2.096;2024-03-07T16:54:10;20.93;;;12.77;;
10511;SDS011;5304;48.604;2.096;2024-03-07T16:56:54;20.20;;;12.20;;
10511;SDS011;5304;48.604;2.096;2024-03-07T16:59:39;21.77;;;14.07;;
10511;SDS011;5304;48.604;2.096;2024-03-07T17:02:23;21.67;;;13.87;;
10511;SDS011;5304;48.604;2.096;2024-03-07T17:05:09;23.10;;;13.40;;
10511;SDS011;5304;48.604;2.096;2024-03-07T17:08:02;22.40;;;13.47;;
10511;SDS011;5304;48.604;2.096;2024-03-07T17:10:50;21.47;;;13.10;;
10511;SDS011;5304;48.604;2.096;2024-03-07T17:13:36;25.93;;;14.87;;
10511;SDS011;5304;48.604;2.096;2024-03-07T17:16:22;27.43;;;16.20;;
10511;SDS011;5304;48.604;2.096;2024-03-07T17:19:07;24.53;;;15.90;;
10511;SDS011;5304;48.604;2.096;2024-03-07T17:21:53;24.70;;;15.17;;
10511;SDS011;5304;48.604;2.096;2024-03-07T17:24:37;26.03;;;16.33;;
10511;SDS011;5304;48.604;2.096;2024-03-07T17:27:22;27.00;;;16.00;;
10511;SDS011;5304;48.604;2.096;2024-03-07T17:30:06;27.27;;;16.10;;
10511;SDS011;5304;48.604;2.096;2024-03-07T17:32:51;25.33;;;15.13;;
10511;SDS011;5304;48.604;2.096;2024-03-07T17:35:35;25.20;;;16.60;;
10511;SDS011;5304;48.604;2.096;2024-03-07T17:38:23;26.37;;;15.83;;
10511;SDS011;5304;48.604;2.096;2024-03-07T17:41:08;25.57;;;15.17;;
10511;SDS011;5304;48.604;2.096;2024-03-07T17:43:52;29.37;;;16.60;;
10511;SDS011;5304;48.604;2.096;2024-03-07T17:46:37;31.37;;;17.23;;
10511;SDS011;5304;48.604;2.096;2024-03-07T17:49:21;28.33;;;16.60;;
10511;SDS011;5304;48.604;2.096;2024-03-07T17:52:10;28.63;;;16.73;;
10511;SDS011;5304;48.604;2.096;2024-03-07T17:54:58;27.47;;;16.73;;
10511;SDS011;5304;48.604;2.096;2024-03-07T17:57:43;25.10;;;15.23;;
10511;SDS011;5304;48.604;2.096;2024-03-07T18:00:27;25.70;;;16.07;;
10511;SDS011;5304;48.604;2.096;2024-03-07T18:03:12;24.90;;;15.90;;
10511;SDS011;5304;48.604;2.096;2024-03-07T18:05:56;29.23;;;17.67;;
10511;SDS011;5304;48.604;2.096;2024-03-07T18:08:41;29.13;;;16.17;;
10511;SDS011;5304;48.604;2.096;2024-03-07T18:11:25;26.57;;;16.73;;
10511;SDS011;5304;48.604;2.096;2024-03-07T18:14:12;28.33;;;17.40;;
10511;SDS011;5304;48.604;2.096;2024-03-07T18:16:57;32.10;;;18.50;;
10511;SDS011;5304;48.604;2.096;2024-03-07T18:19:41;27.47;;;17.63;;
10511;SDS011;5304;48.604;2.096;2024-03-07T18:22:25;28.97;;;17.40;;
10511;SDS011;5304;48.604;2.096;2024-03-07T18:25:10;25.97;;;16.70;;
10511;SDS011;5304;48.604;2.096;2024-03-07T18:27:55;30.37;;;18.67;;
10511;SDS011;5304;48.604;2.096;2024-03-07T18:30:40;28.60;;;17.70;;
10511;SDS011;5304;48.604;2.096;2024-03-07T18:33:25;32.83;;;16.83;;
10511;SDS011;5304;48.604;2.096;2024-03-07T18:36:09;28.87;;;16.93;;
10511;SDS011;5304;48.604;2.096;2024-03-07T18:38:57;30.87;;;17.60;;
10511;SDS011;5304;48.604;2.096;2024-03-07T18:41:41;29.27;;;18.23;;
10511;SDS011;5304;48.604;2.096;2024-03-07T18:44:29;31.80;;;17.30;;
10511;SDS011;5304;48.604;2.096;2024-03-07T18:47:18;32.73;;;19.93;;
10511;SDS011;5304;48.604;2.096;2024-03-07T18:50:02;30.97;;;17.87;;
10511;SDS011;5304;48.604;2.096;2024-03-07T18:52:53;31.57;;;19.87;;
10511;SDS011;5304;48.604;2.096;2024-03-07T18:55:39;33.87;;;19.87;;
10511;SDS011;5304;48.604;2.096;2024-03-07T18:58:28;35.67;;;20.10;;
10511;SDS011;5304;48.604;2.096;2024-03-07T19:01:12;31.83;;;18.43;;
10511;SDS011;5304;48.604;2.096;2024-03-07T19:03:57;33.30;;;18.83;;
10511;SDS011;5304;48.604;2.096;2024-03-07T19:06:41;31.33;;;19.07;;
10511;SDS011;5304;48.604;2.096;2024-03-07T19:09:26;36.07;;;20.83;;
10511;SDS011;5304;48.604;2.096;2024-03-07T19:12:10;32.57;;;19.20;;
10511;SDS011;5304;48.604;2.096;2024-03-07T19:14:54;32.10;;;19.43;;
10511;SDS011;5304;48.604;2.096;2024-03-07T19:17:39;33.47;;;19.17;;
10511;SDS011;5304;48.604;2.096;2024-03-07T19:20:23;34.30;;;20.60;;
10511;SDS011;5304;48.604;2.096;2024-03-07T19:23:07;35.53;;;19.87;;
10511;SDS011;5304;48.604;2.096;2024-03-07T19:25:56;36.53;;;20.07;;
10511;SDS011;5304;48.604;2.096;2024-03-07T19:28:40;33.40;;;19.30;;
10511;SDS011;5304;48.604;2.096;2024-03-07T19:31:24;37.60;;;21.07;;
10511;SDS011;5304;48.604;2.096;2024-03-07T19:34:08;35.77;;;21.27;;
10511;SDS011;5304;48.604;2.096;2024-03-07T19:36:53;35.97;;;21.57;;
10511;SDS011;5304;48.604;2.096;2024-03-07T19:39:37;36.87;;;21.63;;
10511;SDS011;5304;48.604;2.096;2024-03-07T19:42:22;37.17;;;21.87;;
10511;SDS011;5304;48.604;2.096;2024-03-07T19:45:08;34.40;;;20.57;;
10511;SDS011;5304;48.604;2.096;2024-03-07T19:47:56;33.10;;;19.97;;
10511;SDS011;5304;48.604;2.096;2024-03-07T19:50:41;33.67;;;21.07;;
10511;SDS011;5304;48.604;2.096;2024-03-07T19:53:26;34.83;;;20.43;;
10511;SDS011;5304;48.604;2.096;2024-03-07T19:56:17;39.03;;;21.93;;
10511;SDS011;5304;48.604;2.096;2024-03-07T19:59:02;35.70;;;20.53;;
10511;SDS011;5304;48.604;2.096;2024-03-07T20:01:50;33.10;;;20.47;;
10511;SDS011;5304;48.604;2.096;2024-03-07T20:04:34;34.63;;;19.43;;
10511;SDS011;5304;48.604;2.096;2024-03-07T20:07:18;35.53;;;20.73;;
10511;SDS011;5304;48.604;2.096;2024-03-07T20:10:03;31.73;;;19.80;;
10511;SDS011;5304;48.604;2.096;2024-03-07T20:12:51;29.40;;;19.40;;
10511;SDS011;5304;48.604;2.096;2024-03-07T20:15:35;35.67;;;19.87;;
10511;SDS011;5304;48.604;2.096;2024-03-07T20:18:19;35.60;;;20.30;;
10511;SDS011;5304;48.604;2.096;2024-03-07T20:21:04;37.07;;;21.13;;
10511;SDS011;5304;48.604;2.096;2024-03-07T20:23:48;35.83;;;19.47;;
10511;SDS011;5304;48.604;2.096;2024-03-07T20:26:32;34.43;;;20.27;;
10511;SDS011;5304;48.604;2.096;2024-03-07T20:29:18;30.10;;;19.43;;
10511;SDS011;5304;48.604;2.096;2024-03-07T20:32:03;31.03;;;19.87;;
10511;SDS011;5304;48.604;2.096;2024-03-07T20:34:49;35.93;;;19.33;;
10511;SDS011;5304;48.604;2.096;2024-03-07T20:37:34;32.03;;;19.53;;
10511;SDS011;5304;48.604;2.096;2024-03-07T20:40:20;31.50;;;19.83;;
10511;SDS011;5304;48.604;2.096;2024-03-07T20:43:07;35.90;;;21.23;;
10511;SDS011;5304;48.604;2.096;2024-03-07T20:45:52;36.97;;;20.03;;
10511;SDS011;5304;48.604;2.096;2024-03-07T20:48:36;33.50;;;19.93;;
10511;SDS011;5304;48.604;2.096;2024-03-07T20:51:20;35.43;;;21.20;;
10511;SDS011;5304;48.604;2.096;2024-03-07T20:54:05;31.30;;;19.37;;
10511;SDS011;5304;48.604;2.096;2024-03-07T20:56:49;34.53;;;19.87;;
10511;SDS011;5304;48.604;2.096;2024-03-07T20:59:36;33.93;;;19.37;;
10511;SDS011;5304;48.604;2.096;2024-03-07T21:02:21;32.20;;;18.83;;
10511;SDS011;5304;48.604;2.096;2024-03-07T21:05:08;32.00;;;18.70;;
10511;SDS011;5304;48.604;2.096;2024-03-07T21:07:54;30.37;;;18.40;;
10511;SDS011;5304;48.604;2.096;2024-03-07T21:10:38;34.43;;;18.80;;
10511;SDS011;5304;48.604;2.096;2024-03-07T21:13:24;34.03;;;20.10;;
10511;SDS011;5304;48.604;2.096;2024-03-07T21:16:09;29.73;;;18.67;;
10511;SDS011;5304;48.604;2.096;2024-03-07T21:18:55;35.93;;;20.10;;
10511;SDS011;5304;48.604;2.096;2024-03-07T21:21:39;31.70;;;18.50;;
10511;SDS011;5304;48.604;2.096;2024-03-07T21:24:23;31.83;;;19.37;;
10511;SDS011;5304;48.604;2.096;2024-03-07T21:27:07;31.33;;;18.57;;
10511;SDS011;5304;48.604;2.096;2024-03-07T21:29:55;26.20;;;17.03;;
10511;SDS011;5304;48.604;2.096;2024-03-07T21:32:40;27.43;;;18.07;;
10511;SDS011;5304;48.604;2.096;2024-03-07T21:35:24;27.73;;;17.73;;
